Time,TemperatureF,DewpointF,PressureIn,WindDirection,WindDirectionDegrees,WindSpeedMPH,WindSpeedGustMPH,Humidity,HourlyPrecipIn,Conditions,Clouds,dailyrainin,SoftwareType,DateUTC
2013-02-20 00:02:00,60.0,58.3,30.09,SSW,208,0.0,0.0,94,0.00,,,0.00,Wunderground v.1.15,2013-02-20 05:02:00,
2013-02-20 00:07:00,59.9,58.2,30.09,SSW,208,0.0,0.0,94,0.00,,,0.00,Wunderground v.1.15,2013-02-20 05:07:00,
2013-02-20 00:12:00,59.9,58.2,30.09,SSW,207,0.0,0.0,94,0.00,,,0.00,Wunderground v.1.15,2013-02-20 05:12:00,
2013-02-20 00:22:00,59.5,57.8,30.08,SSW,208,0.0,0.0,94,0.00,,,0.00,Wunderground v.1.15,2013-02-20 05:22:00,
2013-02-20 00:32:00,59.3,57.6,30.08,SSW,208,0.0,0.0,94,0.00,,,0.00,Wunderground v.1.15,2013-02-20 05:32:00,
2013-02-20 00:37:00,59.2,57.5,30.08,SSW,208,0.0,0.0,94,0.00,,,0.00,Wunderground v.1.15,2013-02-20 05:37:00,
2013-02-20 00:42:00,59.0,57.3,30.08,SSW,208,0.0,0.0,94,0.00,,,0.00,Wunderground v.1.15,2013-02-20 05:42:00,
2013-02-20 00:52:00,58.9,57.2,30.08,SSW,208,0.0,0.0,94,0.00,,,0.00,Wunderground v.1.15,2013-02-20 05:52:00,
2013-02-20 01:02:00,58.9,57.5,30.08,SSW,208,0.0,0.0,95,0.00,,,0.00,Wunderground v.1.15,2013-02-20 06:02:00,
2013-02-20 01:12:00,58.7,57.0,30.08,SSW,208,0.0,0.0,94,0.00,,,0.00,Wunderground v.1.15,2013-02-20 06:12:00,
2013-02-20 01:22:00,58.4,56.7,30.08,SSW,208,0.0,0.0,94,0.00,,,0.00,Wunderground v.1.15,2013-02-20 06:22:00,
2013-02-20 01:32:00,58.1,56.4,30.07,SSW,208,0.0,0.0,94,0.00,,,0.00,Wunderground v.1.15,2013-02-20 06:32:00,
2013-02-20 01:37:00,58.2,56.8,30.07,SSW,208,0.0,0.0,95,0.00,,,0.00,Wunderground v.1.15,2013-02-20 06:37:00,
2013-02-20 01:42:00,58.9,57.5,30.07,SSW,208,0.0,0.0,95,0.00,,,0.00,Wunderground v.1.15,2013-02-20 06:42:00,
2013-02-20 01:52:00,58.8,57.4,30.07,SSW,208,0.0,0.0,95,0.00,,,0.00,Wunderground v.1.15,2013-02-20 06:52:00,
2013-02-20 01:57:00,58.8,57.4,30.07,SSW,208,0.0,0.0,95,0.00,,,0.00,Wunderground v.1.15,2013-02-20 06:57:00,
2013-02-20 02:07:00,58.4,57.0,30.07,SSW,208,0.0,0.0,95,0.00,,,0.00,Wunderground v.1.15,2013-02-20 07:07:00,
2013-02-20 02:17:00,58.2,56.8,30.07,SSW,208,0.0,0.0,95,0.00,,,0.00,Wunderground v.1.15,2013-02-20 07:17:00,
2013-02-20 02:27:00,57.8,56.4,30.07,SSW,208,0.0,0.0,95,0.00,,,0.00,Wunderground v.1.15,2013-02-20 07:27:00,
2013-02-20 02:32:00,57.7,56.3,30.06,SSW,208,0.0,0.0,95,0.00,,,0.00,Wunderground v.1.15,2013-02-20 07:32:00,
2013-02-20 02:42:00,57.7,56.3,30.06,SSW,208,0.0,0.0,95,0.00,,,0.00,Wunderground v.1.15,2013-02-20 07:42:00,
2013-02-20 02:47:00,57.9,56.5,30.06,SSW,207,0.0,0.0,95,0.00,,,0.00,Wunderground v.1.15,2013-02-20 07:47:00,
2013-02-20 02:57:00,57.6,56.2,30.06,SSW,208,0.0,0.0,95,0.00,,,0.00,Wunderground v.1.15,2013-02-20 07:57:00,
2013-02-20 03:07:00,57.5,56.1,30.06,SSW,208,0.0,0.0,95,0.00,,,0.00,Wunderground v.1.15,2013-02-20 08:07:00,
2013-02-20 03:12:00,57.4,56.0,30.06,SSW,208,0.0,0.0,95,0.00,,,0.00,Wunderground v.1.15,2013-02-20 08:12:00,
2013-02-20 03:17:00,57.4,56.0,30.05,SSW,208,0.0,0.0,95,0.00,,,0.00,Wunderground v.1.15,2013-02-20 08:17:00,
2013-02-20 03:27:00,57.1,55.7,30.05,SSW,208,0.0,0.0,95,0.00,,,0.00,Wunderground v.1.15,2013-02-20 08:27:00,
2013-02-20 03:37:00,57.1,55.7,30.05,SSW,207,0.0,0.0,95,0.00,,,0.00,Wunderground v.1.15,2013-02-20 08:37:00,
2013-02-20 03:47:00,57.1,55.7,30.06,SSW,208,0.0,0.0,95,0.00,,,0.00,Wunderground v.1.15,2013-02-20 08:47:00,
2013-02-20 03:57:00,57.2,56.1,30.06,SSW,207,0.0,0.0,96,0.00,,,0.00,Wunderground v.1.15,2013-02-20 08:57:00,
2013-02-20 04:02:00,57.2,56.1,30.05,SSW,208,0.0,0.0,96,0.00,,,0.00,Wunderground v.1.15,2013-02-20 09:02:00,
2013-02-20 04:12:00,57.1,55.7,30.05,SSW,207,0.0,0.0,95,0.00,,,0.00,Wunderground v.1.15,2013-02-20 09:12:00,
2013-02-20 04:22:00,57.0,55.6,30.05,SSW,208,0.0,0.0,95,0.00,,,0.00,Wunderground v.1.15,2013-02-20 09:22:00,
2013-02-20 04:32:00,56.9,55.5,30.05,SSW,208,0.0,0.0,95,0.00,,,0.00,Wunderground v.1.15,2013-02-20 09:32:00,
2013-02-20 04:42:00,56.8,55.7,30.05,SSW,208,0.0,0.0,96,0.00,,,0.00,Wunderground v.1.15,2013-02-20 09:42:00,
2013-02-20 04:52:00,56.8,55.7,30.04,SSW,208,0.0,0.0,96,0.00,,,0.00,Wunderground v.1.15,2013-02-20 09:52:00,
2013-02-20 04:57:00,56.8,55.7,30.04,SSW,206,0.0,0.0,96,0.00,,,0.00,Wunderground v.1.15,2013-02-20 09:57:00,
2013-02-20 05:07:00,56.9,55.8,30.04,SSW,208,0.0,0.0,96,0.00,,,0.00,Wunderground v.1.15,2013-02-20 10:07:00,
2013-02-20 05:17:00,57.0,55.9,30.06,SSW,208,0.0,0.0,96,0.00,,,0.00,Wunderground v.1.15,2013-02-20 10:17:00,
2013-02-20 05:27:00,57.5,56.4,30.06,SSW,209,0.0,0.0,96,0.00,,,0.00,Wunderground v.1.15,2013-02-20 10:27:00,
2013-02-20 05:37:00,57.2,56.1,30.05,SSW,208,0.0,0.0,96,0.00,,,0.00,Wunderground v.1.15,2013-02-20 10:37:00,
2013-02-20 05:47:00,57.1,56.0,30.06,SSW,208,0.0,0.0,96,0.00,,,0.00,Wunderground v.1.15,2013-02-20 10:47:00,
2013-02-20 05:57:00,57.2,56.1,30.06,SSW,208,0.0,0.0,96,0.00,,,0.00,Wunderground v.1.15,2013-02-20 10:57:00,
2013-02-20 06:07:00,57.1,56.0,30.06,SSW,207,0.0,0.0,96,0.00,,,0.00,Wunderground v.1.15,2013-02-20 11:07:00,
2013-02-20 06:12:00,57.0,55.9,30.06,SSW,208,0.0,0.0,96,0.00,,,0.00,Wunderground v.1.15,2013-02-20 11:12:00,
2013-02-20 06:22:00,57.0,55.9,30.06,SSW,208,0.0,0.0,96,0.00,,,0.00,Wunderground v.1.15,2013-02-20 11:22:00,
2013-02-20 06:27:00,56.9,55.8,30.06,SSW,208,0.0,0.0,96,0.00,,,0.00,Wunderground v.1.15,2013-02-20 11:27:00,
2013-02-20 06:37:00,57.2,56.1,30.07,SSW,207,0.0,0.0,96,0.00,,,0.00,Wunderground v.1.15,2013-02-20 11:37:00,
2013-02-20 06:47:00,57.1,56.0,30.07,SSW,205,0.0,0.0,96,0.00,,,0.00,Wunderground v.1.15,2013-02-20 11:47:00,
2013-02-20 06:52:00,57.0,55.9,30.07,SSW,208,0.0,0.0,96,0.00,,,0.00,Wunderground v.1.15,2013-02-20 11:52:00,
2013-02-20 07:02:00,56.9,55.8,30.07,SSW,207,0.0,0.0,96,0.00,,,0.00,Wunderground v.1.15,2013-02-20 12:02:00,
2013-02-20 07:12:00,56.9,55.8,30.07,SSW,208,0.0,0.0,96,0.00,,,0.00,Wunderground v.1.15,2013-02-20 12:12:00,
2013-02-20 07:22:00,57.2,56.4,30.07,SSW,207,0.0,0.0,97,0.00,,,0.00,Wunderground v.1.15,2013-02-20 12:22:00,
2013-02-20 07:32:00,57.5,56.7,30.08,SSW,207,0.0,0.0,97,0.00,,,0.00,Wunderground v.1.15,2013-02-20 12:32:00,
2013-02-20 07:37:00,57.9,57.1,30.08,SSW,209,0.0,0.0,97,0.00,,,0.00,Wunderground v.1.15,2013-02-20 12:37:00,
2013-02-20 07:42:00,58.3,57.5,30.08,SSW,207,0.0,0.0,97,0.00,,,0.00,Wunderground v.1.15,2013-02-20 12:42:00,
2013-02-20 07:52:00,59.2,58.3,30.08,SSW,208,0.0,0.0,97,0.00,,,0.00,Wunderground v.1.15,2013-02-20 12:52:00,
2013-02-20 08:02:00,60.2,59.3,30.08,SSW,208,0.0,0.0,97,0.00,,,0.00,Wunderground v.1.15,2013-02-20 13:02:00,
2013-02-20 08:12:00,61.2,60.3,30.08,SSW,207,0.0,0.0,97,0.00,,,0.00,Wunderground v.1.15,2013-02-20 13:12:00,
2013-02-20 08:22:00,62.2,61.6,30.09,SSW,208,0.0,0.0,98,0.00,,,0.00,Wunderground v.1.15,2013-02-20 13:22:00,
2013-02-20 08:32:00,63.4,62.8,30.09,SSW,209,0.0,0.0,98,0.00,,,0.00,Wunderground v.1.15,2013-02-20 13:32:00,
2013-02-20 08:37:00,63.7,62.8,30.09,SW,219,0.0,0.0,97,0.00,,,0.00,Wunderground v.1.15,2013-02-20 13:37:00,
2013-02-20 08:47:00,63.8,62.9,30.09,WSW,247,0.0,0.0,97,0.00,,,0.00,Wunderground v.1.15,2013-02-20 13:47:00,
2013-02-20 08:52:00,63.8,62.9,30.09,WSW,248,0.0,0.0,97,0.00,,,0.00,Wunderground v.1.15,2013-02-20 13:52:00,
2013-02-20 09:02:00,64.8,63.9,30.09,WSW,248,0.0,0.0,97,0.00,,,0.00,Wunderground v.1.15,2013-02-20 14:02:00,
2013-02-20 09:12:00,65.5,64.6,30.09,WSW,249,0.0,0.0,97,0.00,,,0.00,Wunderground v.1.15,2013-02-20 14:12:00,
2013-02-20 09:22:00,66.7,65.5,30.09,WSW,251,0.0,0.0,96,0.00,,,0.00,Wunderground v.1.15,2013-02-20 14:22:00,
2013-02-20 09:32:00,67.9,65.8,30.09,WSW,258,0.0,0.0,93,0.00,,,0.00,Wunderground v.1.15,2013-02-20 14:32:00,
2013-02-20 09:42:00,69.4,65.4,30.09,West,267,0.0,0.0,87,0.00,,,0.00,Wunderground v.1.15,2013-02-20 14:42:00,
2013-02-20 09:47:00,70.1,65.7,30.09,West,271,0.0,0.0,86,0.00,,,0.00,Wunderground v.1.15,2013-02-20 14:47:00,
2013-02-20 09:52:00,70.7,65.6,30.09,ENE,66,0.0,0.0,84,0.00,,,0.00,Wunderground v.1.15,2013-02-20 14:52:00,
2013-02-20 10:02:00,71.3,65.5,30.08,NE,53,0.0,2.0,82,0.00,,,0.00,Wunderground v.1.15,2013-02-20 15:02:00,
2013-02-20 10:12:00,72.0,63.6,30.08,NNE,30,1.0,1.0,75,0.00,,,0.00,Wunderground v.1.15,2013-02-20 15:12:00,
2013-02-20 10:22:00,72.9,62.5,30.08,NNE,32,0.0,2.0,70,0.00,,,0.00,Wunderground v.1.15,2013-02-20 15:22:00,
2013-02-20 10:27:00,73.4,63.4,30.08,NNE,33,0.0,2.0,71,0.00,,,0.00,Wunderground v.1.15,2013-02-20 15:27:00,
2013-02-20 10:37:00,73.6,62.0,30.09,North,355,1.0,1.0,67,0.00,,,0.00,Wunderground v.1.15,2013-02-20 15:37:00,
2013-02-20 10:47:00,74.2,60.8,30.09,NNE,32,2.0,2.0,63,0.00,,,0.00,Wunderground v.1.15,2013-02-20 15:47:00,
2013-02-20 10:57:00,74.4,61.9,30.09,NNW,348,2.0,4.0,65,0.00,,,0.00,Wunderground v.1.15,2013-02-20 15:57:00,
2013-02-20 11:07:00,75.3,61.4,30.09,NNW,340,2.0,8.0,62,0.00,,,0.00,Wunderground v.1.15,2013-02-20 16:07:00,
2013-02-20 11:17:00,75.3,60.0,30.09,NNW,344,4.0,6.0,59,0.00,,,0.00,Wunderground v.1.15,2013-02-20 16:17:00,
2013-02-20 11:27:00,75.6,60.7,30.09,NE,55,3.0,5.0,60,0.00,,,0.00,Wunderground v.1.15,2013-02-20 16:27:00,
2013-02-20 11:37:00,76.0,60.6,30.09,North,9,2.0,5.0,59,0.00,,,0.00,Wunderground v.1.15,2013-02-20 16:37:00,
2013-02-20 11:42:00,75.9,60.5,30.09,North,350,3.0,5.0,59,0.00,,,0.00,Wunderground v.1.15,2013-02-20 16:42:00,
2013-02-20 11:52:00,76.3,60.9,30.09,NNE,21,1.0,5.0,59,0.00,,,0.00,Wunderground v.1.15,2013-02-20 16:52:00,
2013-02-20 12:02:00,76.5,61.1,30.09,NE,49,1.0,1.0,59,0.00,,,0.00,Wunderground v.1.15,2013-02-20 17:02:00,
2013-02-20 12:12:00,76.7,62.2,30.09,NNE,19,1.0,1.0,61,0.00,,,0.00,Wunderground v.1.15,2013-02-20 17:12:00,
2013-02-20 12:22:00,77.3,62.3,30.07,NNE,17,1.0,1.0,60,0.00,,,0.00,Wunderground v.1.15,2013-02-20 17:22:00,
2013-02-20 12:27:00,77.0,62.5,30.07,North,355,2.0,3.0,61,0.00,,,0.00,Wunderground v.1.15,2013-02-20 17:27:00,
2013-02-20 12:37:00,76.4,62.0,30.06,NNW,344,5.0,7.0,61,0.00,,,0.00,Wunderground v.1.15,2013-02-20 17:37:00,
2013-02-20 12:42:00,76.9,62.4,30.06,North,9,5.0,5.0,61,0.00,,,0.00,Wunderground v.1.15,2013-02-20 17:42:00,
2013-02-20 12:47:00,76.8,62.3,30.04,NNW,342,4.0,5.0,61,0.00,,,0.00,Wunderground v.1.15,2013-02-20 17:47:00,
2013-02-20 12:57:00,77.8,60.3,30.04,NNE,32,1.0,2.0,55,0.00,,,0.00,Wunderground v.1.15,2013-02-20 17:57:00,
2013-02-20 13:07:00,78.3,61.3,30.06,NE,36,1.0,8.0,56,0.00,,,0.00,Wunderground v.1.15,2013-02-20 18:07:00,
2013-02-20 13:17:00,78.0,61.5,30.03,SSE,167,1.0,2.0,57,0.00,,,0.00,Wunderground v.1.15,2013-02-20 18:17:00,
2013-02-20 13:27:00,78.2,61.2,30.03,SSE,163,2.0,8.0,56,0.00,,,0.00,Wunderground v.1.15,2013-02-20 18:27:00,
2013-02-20 13:32:00,78.1,61.1,30.01,SSW,209,2.0,2.0,56,0.00,,,0.00,Wunderground v.1.15,2013-02-20 18:32:00,
2013-02-20 13:42:00,78.8,60.7,30.01,SW,221,3.0,8.0,54,0.00,,,0.00,Wunderground v.1.15,2013-02-20 18:42:00,
2013-02-20 13:47:00,78.5,62.0,30.01,SSW,209,4.0,8.0,57,0.00,,,0.00,Wunderground v.1.15,2013-02-20 18:47:00,
2013-02-20 13:52:00,78.6,62.1,30.01,WSW,255,3.0,9.0,57,0.00,,,0.00,Wunderground v.1.15,2013-02-20 18:52:00,
2013-02-20 13:57:00,78.8,62.3,30.01,West,267,3.0,9.0,57,0.00,,,0.00,Wunderground v.1.15,2013-02-20 18:57:00,
2013-02-20 14:07:00,79.2,60.6,30.00,SW,232,4.0,8.0,53,0.00,,,0.00,Wunderground v.1.15,2013-02-20 19:07:00,
2013-02-20 14:17:00,79.6,62.0,30.00,SW,225,3.0,4.0,55,0.00,,,0.00,Wunderground v.1.15,2013-02-20 19:17:00,
2013-02-20 14:27:00,79.6,61.5,30.00,WSW,244,3.0,5.0,54,0.00,,,0.00,Wunderground v.1.15,2013-02-20 19:27:00,
2013-02-20 14:32:00,78.8,61.3,30.00,WSW,248,3.0,3.0,55,0.00,,,0.00,Wunderground v.1.15,2013-02-20 19:32:00,
2013-02-20 14:37:00,79.0,61.5,30.00,SW,232,2.0,5.0,55,0.00,,,0.00,Wunderground v.1.15,2013-02-20 19:37:00,
2013-02-20 14:42:00,79.5,61.9,30.00,SW,221,2.0,3.0,55,0.00,,,0.00,Wunderground v.1.15,2013-02-20 19:42:00,
2013-02-20 14:52:00,80.1,61.4,29.99,SSW,209,1.0,1.0,53,0.00,,,0.00,Wunderground v.1.15,2013-02-20 19:52:00,
2013-02-20 14:57:00,80.4,60.6,29.99,SSW,211,2.0,2.0,51,0.00,,,0.00,Wunderground v.1.15,2013-02-20 19:57:00,
2013-02-20 15:02:00,80.3,61.1,29.99,SW,221,2.0,11.0,52,0.00,,,0.00,Wunderground v.1.15,2013-02-20 20:02:00,
2013-02-20 15:12:00,80.3,60.0,29.99,West,263,2.0,2.0,50,0.00,,,0.00,Wunderground v.1.15,2013-02-20 20:12:00,
2013-02-20 15:22:00,80.4,60.1,29.99,WSW,254,2.0,2.0,50,0.00,,,0.00,Wunderground v.1.15,2013-02-20 20:22:00,
2013-02-20 15:27:00,79.9,60.2,29.99,West,276,2.0,3.0,51,0.00,,,0.00,Wunderground v.1.15,2013-02-20 20:27:00,
2013-02-20 15:37:00,79.9,60.2,29.99,WSW,245,3.0,6.0,51,0.00,,,0.00,Wunderground v.1.15,2013-02-20 20:37:00,
2013-02-20 15:47:00,79.7,59.4,29.99,WSW,244,3.0,11.0,50,0.00,,,0.00,Wunderground v.1.15,2013-02-20 20:47:00,
2013-02-20 15:57:00,80.1,60.9,29.99,SW,225,2.0,11.0,52,0.00,,,0.00,Wunderground v.1.15,2013-02-20 20:57:00,
2013-02-20 16:07:00,80.3,59.4,29.99,WNW,288,1.0,2.0,49,0.00,,,0.00,Wunderground v.1.15,2013-02-20 21:07:00,
2013-02-20 16:17:00,80.0,60.2,30.00,West,265,2.0,2.0,51,0.00,,,0.00,Wunderground v.1.15,2013-02-20 21:17:00,
2013-02-20 16:22:00,79.8,60.1,30.00,WNW,285,2.0,5.0,51,0.00,,,0.00,Wunderground v.1.15,2013-02-20 21:22:00,
2013-02-20 16:32:00,79.2,63.6,30.00,WNW,301,3.0,3.0,59,0.00,,,0.00,Wunderground v.1.15,2013-02-20 21:32:00,
2013-02-20 16:42:00,76.7,63.6,30.00,NW,312,6.0,6.0,64,0.00,,,0.00,Wunderground v.1.15,2013-02-20 21:42:00,
2013-02-20 16:52:00,75.8,63.6,30.00,WNW,289,5.0,5.0,66,0.00,,,0.00,Wunderground v.1.15,2013-02-20 21:52:00,
2013-02-20 16:57:00,75.6,63.4,30.00,NW,320,5.0,5.0,66,0.00,,,0.00,Wunderground v.1.15,2013-02-20 21:57:00,
2013-02-20 17:07:00,75.3,62.3,30.01,WNW,300,5.0,9.0,64,0.00,,,0.00,Wunderground v.1.15,2013-02-20 22:07:00,
2013-02-20 17:17:00,75.0,62.0,30.01,NW,309,5.0,9.0,64,0.00,,,0.00,Wunderground v.1.15,2013-02-20 22:17:00,
2013-02-20 17:22:00,75.1,61.6,30.01,NW,321,4.0,4.0,63,0.00,,,0.00,Wunderground v.1.15,2013-02-20 22:22:00,
2013-02-20 17:32:00,74.8,61.8,30.02,NW,310,4.0,4.0,64,0.00,,,0.00,Wunderground v.1.15,2013-02-20 22:32:00,
2013-02-20 17:37:00,74.6,61.6,30.02,NW,306,3.0,9.0,64,0.00,,,0.00,Wunderground v.1.15,2013-02-20 22:37:00,
2013-02-20 17:47:00,73.9,61.8,30.03,West,269,2.0,2.0,66,0.00,,,0.00,Wunderground v.1.15,2013-02-20 22:47:00,
2013-02-20 17:57:00,73.3,61.7,30.03,West,267,2.0,4.0,67,0.00,,,0.00,Wunderground v.1.15,2013-02-20 22:57:00,
2013-02-20 18:07:00,72.8,61.6,30.03,WNW,283,1.0,2.0,68,0.00,,,0.00,Wunderground v.1.15,2013-02-20 23:07:00,
2013-02-20 18:12:00,72.4,62.1,30.03,West,281,1.0,2.0,70,0.00,,,0.00,Wunderground v.1.15,2013-02-20 23:12:00,
2013-02-20 18:22:00,71.5,62.0,30.03,WNW,282,0.0,0.0,72,0.00,,,0.00,Wunderground v.1.15,2013-02-20 23:22:00,
2013-02-20 18:32:00,70.9,62.2,30.03,West,281,0.0,0.0,74,0.00,,,0.00,Wunderground v.1.15,2013-02-20 23:32:00,
2013-02-20 18:37:00,70.5,62.2,30.03,WNW,290,0.0,0.0,75,0.00,,,0.00,Wunderground v.1.15,2013-02-20 23:37:00,
2013-02-20 18:47:00,69.8,61.9,30.04,WNW,288,0.0,0.0,76,0.00,,,0.00,Wunderground v.1.15,2013-02-20 23:47:00,
2013-02-20 18:57:00,69.3,62.5,30.04,NW,315,1.0,1.0,79,0.00,,,0.00,Wunderground v.1.15,2013-02-20 23:57:00,
2013-02-20 19:02:00,69.3,62.9,30.04,NNW,329,1.0,1.0,80,0.00,,,0.00,Wunderground v.1.15,2013-02-21 00:02:00,
2013-02-20 19:12:00,68.9,62.8,30.04,NNW,329,0.0,11.0,81,0.00,,,0.00,Wunderground v.1.15,2013-02-21 00:12:00,
2013-02-20 19:22:00,68.5,62.8,30.04,NNW,328,0.0,11.0,82,0.00,,,0.00,Wunderground v.1.15,2013-02-21 00:22:00,
2013-02-20 19:32:00,68.1,62.7,30.05,NNW,328,0.0,11.0,83,0.00,,,0.00,Wunderground v.1.15,2013-02-21 00:32:00,
2013-02-20 19:37:00,68.0,62.6,30.05,NNW,329,0.0,11.0,83,0.00,,,0.00,Wunderground v.1.15,2013-02-21 00:37:00,
2013-02-20 19:42:00,67.7,62.3,30.05,NNW,329,0.0,11.0,83,0.00,,,0.00,Wunderground v.1.15,2013-02-21 00:42:00,
2013-02-20 19:52:00,67.5,62.2,30.05,NNW,328,0.0,11.0,83,0.00,,,0.00,Wunderground v.1.15,2013-02-21 00:52:00,
2013-02-20 20:02:00,67.4,62.1,30.05,NNW,329,0.0,11.0,83,0.00,,,0.00,Wunderground v.1.15,2013-02-21 01:02:00,
2013-02-20 20:12:00,67.1,61.8,30.05,NNW,329,0.0,0.0,83,0.00,,,0.00,Wunderground v.1.15,2013-02-21 01:12:00,
2013-02-20 20:22:00,66.6,61.6,30.04,NNW,329,0.0,0.0,84,0.00,,,0.00,Wunderground v.1.15,2013-02-21 01:22:00,
2013-02-20 20:32:00,66.0,61.4,30.05,NNW,329,0.0,0.0,85,0.00,,,0.00,Wunderground v.1.15,2013-02-21 01:32:00,
2013-02-20 20:37:00,65.7,61.4,30.05,NNW,329,0.0,0.0,86,0.00,,,0.00,Wunderground v.1.15,2013-02-21 01:37:00,
2013-02-20 20:42:00,65.6,61.3,30.05,NNW,329,0.0,0.0,86,0.00,,,0.00,Wunderground v.1.15,2013-02-21 01:42:00,
2013-02-20 20:52:00,65.5,61.5,30.06,NNW,328,0.0,0.0,87,0.00,,,0.00,Wunderground v.1.15,2013-02-21 01:52:00,
2013-02-20 21:02:00,65.3,61.3,30.06,NNW,329,0.0,7.0,87,0.00,,,0.00,Wunderground v.1.15,2013-02-21 02:02:00,
2013-02-20 21:07:00,65.4,61.4,30.06,NNW,343,0.0,7.0,87,0.00,,,0.00,Wunderground v.1.15,2013-02-21 02:07:00,
2013-02-20 21:12:00,65.7,61.7,30.06,North,350,1.0,1.0,87,0.00,,,0.00,Wunderground v.1.15,2013-02-21 02:12:00,
2013-02-20 21:22:00,66.3,61.7,30.06,NNW,346,1.0,1.0,85,0.00,,,0.00,Wunderground v.1.15,2013-02-21 02:22:00,
2013-02-20 21:32:00,66.6,61.6,30.06,North,350,0.0,7.0,84,0.00,,,0.00,Wunderground v.1.15,2013-02-21 02:32:00,
2013-02-20 21:37:00,66.7,61.4,30.06,North,355,1.0,7.0,83,0.00,,,0.00,Wunderground v.1.15,2013-02-21 02:37:00,
2013-02-20 21:42:00,66.9,61.6,30.06,North,360,1.0,1.0,83,0.00,,,0.00,Wunderground v.1.15,2013-02-21 02:42:00,
2013-02-20 21:52:00,67.1,61.4,30.06,North,5,1.0,1.0,82,0.00,,,0.00,Wunderground v.1.15,2013-02-21 02:52:00,
2013-02-20 21:57:00,67.2,61.5,30.06,North,355,1.0,7.0,82,0.00,,,0.00,Wunderground v.1.15,2013-02-21 02:57:00,
2013-02-20 22:07:00,67.3,62.0,30.06,North,5,0.0,1.0,83,0.00,,,0.00,Wunderground v.1.15,2013-02-21 03:07:00,
2013-02-20 22:17:00,67.3,62.0,30.07,North,9,0.0,0.0,83,0.00,,,0.00,Wunderground v.1.15,2013-02-21 03:17:00,
2013-02-20 22:27:00,67.2,61.9,30.07,North,5,0.0,0.0,83,0.00,,,0.00,Wunderground v.1.15,2013-02-21 03:27:00,
2013-02-20 22:37:00,67.1,61.8,30.06,North,5,0.0,0.0,83,0.00,,,0.00,Wunderground v.1.15,2013-02-21 03:37:00,
2013-02-20 22:47:00,67.0,61.7,30.07,NNE,19,0.0,0.0,83,0.00,,,0.00,Wunderground v.1.15,2013-02-21 03:47:00,
2013-02-20 23:02:00,67.0,61.7,30.06,NNE,19,0.0,6.0,83,0.00,,,0.00,Wunderground v.1.15,2013-02-21 04:02:00,
2013-02-20 23:12:00,66.8,61.8,30.06,NNE,17,0.0,6.0,84,0.00,,,0.00,Wunderground v.1.15,2013-02-21 04:12:00,
2013-02-20 23:22:00,66.6,61.9,30.06,NNE,20,0.0,6.0,85,0.00,,,0.00,Wunderground v.1.15,2013-02-21 04:22:00,
2013-02-20 23:27:00,66.5,61.5,30.06,NNE,13,0.0,6.0,84,0.00,,,0.00,Wunderground v.1.15,2013-02-21 04:27:00,
2013-02-20 23:37:00,66.4,61.8,30.06,NNE,15,0.0,6.0,85,0.00,,,0.00,Wunderground v.1.15,2013-02-21 04:37:00,
2013-02-20 23:42:00,66.4,61.8,30.06,NNE,15,0.0,6.0,85,0.00,,,0.00,Wunderground v.1.15,2013-02-21 04:42:00,
2013-02-20 23:47:00,66.3,61.7,30.05,NNE,14,0.0,6.0,85,0.00,,,0.00,Wunderground v.1.15,2013-02-21 04:47:00,
2013-02-20 23:57:00,66.2,61.9,30.05,NNE,15,0.0,6.0,86,0.00,,,0.00,Wunderground v.1.15,2013-02-21 04:57:00,